Estación Meteorológica Peña el Pijo (Robertgarden) [ 11/24/17 15:37:58 CET ]

Fecha Hora Presion(HPa) Temp (°C) Humedad % Rocio (°C) Viento ( m/s) Direccion Lluvia 1Hora(mm) Lluvia 24H(mm) LLuvia Total(mm)
2017-May-13 01:01:41 1007.500 11.0 73 6.4         1390.83
2017-May-13 02:01:52 1007.200 9.5 76 5.4         1390.83
2017-May-13 03:01:41 1007.000 9.5 79 6.0         1390.83
2017-May-13 04:03:14 1007.200 8.6 80 5.3         1390.83
2017-May-13 05:01:55 1007.100 8.1 81 5.1         1390.83
2017-May-13 06:01:58 1007.600 7.6 83 4.9         1390.83
2017-May-13 07:01:43 1007.800 6.8 84 4.3         1390.83
2017-May-13 08:01:43 1008.200 9.6 86 7.3         1390.83
2017-May-13 09:01:54 1008.700 14.3 76 10.1         1390.83
2017-May-13 10:01:51 1009.200 16.4 57 7.8         1390.83
2017-May-13 11:01:36 1009.500 17.8 54 8.3         1390.83
2017-May-13 12:01:53 1009.500 21.6 41 7.8         1390.83
2017-May-13 13:01:52 1009.600 22.1 37 6.6         1390.83
2017-May-13 14:01:57 1009.700 22.2 36 6.3 1.0 WNW     1390.83
2017-May-13 15:01:41 1009.600 23.5 33 6.2         1390.83
2017-May-13 16:01:49 1009.300 23.9 33 6.6         1390.83
2017-May-13 17:01:39 1009.600 23.3 34 6.4         1390.83
2017-May-13 18:01:42 1009.900 21.8 35 5.6 0.6 SE     1390.83
2017-May-13 19:01:57 1010.000 19.6 40 5.6         1390.83
2017-May-13 20:01:48 1011.000 17.9 45 5.7 1.7 NNW     1390.83
2017-May-13 21:01:34 1011.400 15.3 52 5.5         1390.83
2017-May-13 22:01:46 1012.300 13.5 59 5.6         1390.83
2017-May-13 23:01:36 1012.900 12.5 63 5.6         1390.83

Temperatura Máxima:23°    Temperatura Mínima:
Presión Máxima:1012.900 Hpa    Presión Mínima:1007.000 Hpa


Volver